createdAt,value
2022-09-23T00:01:21.177Z,13.90
2022-09-23T00:03:49.320Z,13.80
2022-09-23T00:06:20.449Z,13.80
2022-09-23T00:08:51.312Z,13.80
2022-09-23T00:11:24.482Z,13.90
2022-09-23T00:13:56.093Z,13.90
2022-09-23T00:16:28.419Z,13.90
2022-09-23T00:18:56.558Z,13.90
2022-09-23T00:21:25.286Z,14.00
2022-09-23T00:23:53.185Z,14.00
2022-09-23T00:26:22.375Z,14.00
2022-09-23T00:28:50.794Z,14.00
2022-09-23T00:31:21.424Z,14.00
2022-09-23T00:33:57.310Z,14.00
2022-09-23T00:36:26.199Z,14.00
2022-09-23T00:38:54.147Z,14.00
2022-09-23T00:41:22.410Z,14.00
2022-09-23T00:43:53.843Z,14.10
2022-09-23T00:46:27.640Z,14.10
2022-09-23T00:49:11.382Z,14.00
2022-09-23T00:51:44.801Z,14.00
2022-09-23T00:54:12.372Z,14.00
2022-09-23T00:56:40.605Z,14.00
2022-09-23T00:59:10.441Z,13.90
2022-09-23T01:01:39.088Z,13.90
2022-09-23T01:04:07.895Z,13.80
2022-09-23T01:06:35.754Z,13.80
2022-09-23T01:09:03.580Z,13.80
2022-09-23T01:12:10.144Z,13.80
2022-09-23T01:15:00.817Z,13.70
2022-09-23T01:17:54.777Z,13.70
2022-09-23T01:20:44.617Z,13.60
2022-09-23T01:23:37.837Z,13.50
2022-09-23T01:26:26.497Z,13.40
2022-09-23T01:29:02.951Z,13.40
2022-09-23T01:31:39.613Z,13.30
2022-09-23T01:34:15.975Z,13.30
2022-09-23T01:36:51.629Z,13.20
2022-09-23T01:39:42.014Z,13.20
2022-09-23T01:42:45.245Z,13.20
2022-09-23T01:45:29.174Z,13.20
2022-09-23T01:48:03.007Z,13.20
2022-09-23T01:50:54.690Z,13.20
2022-09-23T01:53:56.748Z,13.20
2022-09-23T01:56:30.825Z,13.10
2022-09-23T01:59:26.610Z,13.10
2022-09-23T02:02:08.021Z,13.10
2022-09-23T02:04:45.718Z,13.00
2022-09-23T02:07:30.329Z,13.00
2022-09-23T02:10:10.886Z,13.00
2022-09-23T02:12:41.006Z,13.10
2022-09-23T02:15:19.693Z,13.10
2022-09-23T02:17:53.390Z,13.20
2022-09-23T02:20:30.321Z,13.20
2022-09-23T02:23:21.492Z,13.30
2022-09-23T02:26:05.682Z,13.30
2022-09-23T02:28:44.925Z,13.30
2022-09-23T02:31:15.154Z,13.40
2022-09-23T02:34:07.794Z,13.40
2022-09-23T02:37:00.118Z,13.40
2022-09-23T02:39:34.757Z,13.40
2022-09-23T02:42:10.144Z,13.50
2022-09-23T02:44:37.824Z,13.50
2022-09-23T02:47:05.471Z,13.40
2022-09-23T02:49:35.243Z,13.50
2022-09-23T02:52:07.750Z,13.50
2022-09-23T02:54:36.757Z,13.40
2022-09-23T02:57:07.022Z,13.40
2022-09-23T02:59:36.002Z,13.40
2022-09-23T03:02:20.630Z,13.40
2022-09-23T03:05:01.545Z,13.30
2022-09-23T03:07:52.359Z,13.40
2022-09-23T03:10:25.793Z,13.30
2022-09-23T03:13:16.609Z,13.40
2022-09-23T03:16:00.569Z,13.30
2022-09-23T03:18:56.599Z,13.40
2022-09-23T03:21:38.868Z,13.40
2022-09-23T03:24:09.566Z,13.40
2022-09-23T03:26:39.818Z,13.40
2022-09-23T03:29:11.259Z,13.40
2022-09-23T03:31:40.188Z,13.40
2022-09-23T03:34:17.961Z,13.40
2022-09-23T03:36:56.210Z,13.40
2022-09-23T03:39:43.324Z,13.40
2022-09-23T03:42:19.874Z,13.40
2022-09-23T03:44:48.980Z,13.40
2022-09-23T03:47:16.899Z,13.40
2022-09-23T03:49:48.491Z,13.40
2022-09-23T03:52:16.577Z,13.30
2022-09-23T03:54:44.268Z,13.30
2022-09-23T03:57:12.477Z,13.30
2022-09-23T03:59:40.660Z,13.30
2022-09-23T04:02:09.010Z,13.30
2022-09-23T04:04:37.890Z,13.30
2022-09-23T04:07:05.590Z,13.30
2022-09-23T04:09:33.274Z,13.20
2022-09-23T04:12:01.127Z,13.20
2022-09-23T04:14:28.674Z,13.20
2022-09-23T04:16:56.357Z,13.20
2022-09-23T04:19:23.972Z,13.20
2022-09-23T04:21:51.539Z,13.10
2022-09-23T04:24:19.221Z,13.10
2022-09-23T04:26:49.863Z,13.10
2022-09-23T04:29:17.438Z,13.10
2022-09-23T04:31:45.107Z,13.10
2022-09-23T04:34:12.772Z,13.10
2022-09-23T04:36:40.336Z,13.00
2022-09-23T04:39:07.933Z,13.10
2022-09-23T04:41:35.545Z,13.00
2022-09-23T04:44:03.415Z,13.00
2022-09-23T04:46:31.232Z,13.00
2022-09-23T04:48:59.006Z,13.00
2022-09-23T04:51:27.629Z,13.00
2022-09-23T04:53:56.130Z,13.00
2022-09-23T04:56:26.476Z,13.00
2022-09-23T04:58:54.396Z,13.00
2022-09-23T05:01:27.659Z,13.00
2022-09-23T05:04:02.436Z,13.00
2022-09-23T05:06:31.566Z,13.00
2022-09-23T05:08:59.639Z,13.00
2022-09-23T05:11:30.425Z,12.90
2022-09-23T05:13:58.211Z,12.90
2022-09-23T05:16:27.141Z,12.90
2022-09-23T05:18:54.991Z,12.90
2022-09-23T05:21:23.930Z,12.80
2022-09-23T05:23:54.999Z,12.80
2022-09-23T05:26:25.656Z,12.80
2022-09-23T05:28:54.396Z,12.80
2022-09-23T05:31:24.495Z,12.80
2022-09-23T05:33:55.498Z,12.80
2022-09-23T05:36:24.167Z,12.80
2022-09-23T05:38:52.753Z,12.70
2022-09-23T05:41:25.337Z,12.70
2022-09-23T05:43:54.069Z,12.60
2022-09-23T05:46:27.977Z,12.60
2022-09-23T05:49:01.796Z,12.50
2022-09-23T05:51:32.618Z,12.20
2022-09-23T05:54:03.021Z,12.40
2022-09-23T05:56:32.058Z,12.40
2022-09-23T05:59:01.560Z,12.40
2022-09-23T06:01:33.997Z,12.40
2022-09-23T06:04:03.700Z,12.40
2022-09-23T06:06:39.677Z,12.30
2022-09-23T06:09:11.432Z,12.30
2022-09-23T06:11:39.556Z,12.20
2022-09-23T06:14:09.658Z,12.20
2022-09-23T06:16:37.306Z,12.20
2022-09-23T06:19:07.853Z,12.20
2022-09-23T06:21:38.107Z,12.20
2022-09-23T06:24:08.323Z,12.20
2022-09-23T06:26:38.204Z,12.20
2022-09-23T06:29:12.291Z,12.20
2022-09-23T06:31:42.074Z,12.20
2022-09-23T06:34:13.200Z,12.20
2022-09-23T06:36:45.781Z,12.20
2022-09-23T06:39:14.981Z,12.10
2022-09-23T06:41:43.326Z,12.10
2022-09-23T06:44:14.810Z,12.00
2022-09-23T06:46:42.565Z,11.90
2022-09-23T06:49:10.766Z,11.90
2022-09-23T06:51:40.257Z,11.80
2022-09-23T06:54:08.133Z,11.70
2022-09-23T06:56:39.155Z,11.60
2022-09-23T06:59:10.860Z,11.50
2022-09-23T07:01:38.761Z,11.50
2022-09-23T07:04:07.639Z,11.50
2022-09-23T07:06:35.870Z,11.50
2022-09-23T07:09:05.332Z,11.50
2022-09-23T07:11:33.333Z,11.50
2022-09-23T07:14:00.808Z,11.60
2022-09-23T07:16:28.464Z,11.70
2022-09-23T07:18:56.101Z,11.70
2022-09-23T07:21:24.183Z,11.80
2022-09-23T07:23:52.096Z,11.90
2022-09-23T07:26:21.143Z,12.00
2022-09-23T07:28:53.165Z,12.10
2022-09-23T07:31:32.359Z,12.20
2022-09-23T07:34:04.444Z,12.30
2022-09-23T07:36:32.892Z,12.50
2022-09-23T07:39:02.246Z,12.60
2022-09-23T07:41:31.766Z,12.70
2022-09-23T07:44:00.418Z,12.80
2022-09-23T07:46:30.416Z,12.90
2022-09-23T07:48:58.634Z,13.00
2022-09-23T07:51:34.749Z,13.10
2022-09-23T07:54:07.918Z,13.20
2022-09-23T07:56:36.657Z,13.40
2022-09-23T07:59:05.887Z,13.50
2022-09-23T08:01:36.198Z,13.60
2022-09-23T08:04:11.618Z,13.70
2022-09-23T08:06:42.966Z,13.90
2022-09-23T08:09:11.194Z,14.10
2022-09-23T08:11:41.953Z,14.40
2022-09-23T08:14:12.446Z,14.70
2022-09-23T08:16:41.198Z,15.00
2022-09-23T08:19:08.787Z,15.20
2022-09-23T08:21:41.970Z,15.50
2022-09-23T08:24:14.329Z,15.80
2022-09-23T08:26:42.382Z,16.10
2022-09-23T08:29:13.475Z,16.30
2022-09-23T08:31:41.477Z,16.50
2022-09-23T08:34:09.254Z,16.80
2022-09-23T08:36:37.076Z,17.10
2022-09-23T08:39:05.322Z,17.50
2022-09-23T08:41:58.545Z,17.80
2022-09-23T08:44:33.087Z,18.30
2022-09-23T08:47:08.221Z,18.70
2022-09-23T08:49:40.654Z,19.00
2022-09-23T08:52:34.564Z,19.30
2022-09-23T08:55:03.907Z,19.60
2022-09-23T08:58:23.280Z,19.90
2022-09-23T09:00:53.198Z,20.20
2022-09-23T09:03:26.377Z,20.50
2022-09-23T09:05:55.100Z,20.90
2022-09-23T09:08:31.661Z,21.20
2022-09-23T09:10:59.548Z,21.30
2022-09-23T09:13:37.670Z,21.40
2022-09-23T09:16:59.653Z,21.60
2022-09-23T09:19:54.054Z,21.90
2022-09-23T09:25:19.293Z,22.40
2022-09-23T09:27:48.642Z,22.50
2022-09-23T09:30:17.476Z,22.80
2022-09-23T09:32:48.377Z,23.10
2022-09-23T09:35:22.055Z,23.30
2022-09-23T09:37:49.626Z,23.50
2022-09-23T09:40:17.594Z,23.90
2022-09-23T09:42:49.109Z,24.00
2022-09-23T09:45:57.881Z,24.00
2022-09-23T09:48:54.412Z,24.00
2022-09-23T09:51:24.494Z,24.20
2022-09-23T09:53:52.601Z,24.30
2022-09-23T09:56:27.279Z,24.50
2022-09-23T09:59:23.418Z,24.60
2022-09-23T10:02:20.073Z,24.90
2022-09-23T10:04:56.173Z,25.20
2022-09-23T10:07:32.436Z,25.60
2022-09-23T10:10:32.544Z,26.10
2022-09-23T10:13:16.143Z,26.30
2022-09-23T10:15:45.418Z,25.90
2022-09-23T10:18:38.329Z,25.20
2022-09-23T10:21:15.074Z,24.40
2022-09-23T10:23:45.367Z,24.00
2022-09-23T10:26:17.367Z,24.20
2022-09-23T10:28:59.685Z,24.70
2022-09-23T10:31:33.122Z,25.00
2022-09-23T10:34:26.495Z,24.80
2022-09-23T10:37:14.494Z,24.30
2022-09-23T10:40:00.930Z,23.80
2022-09-23T10:43:12.947Z,23.70
2022-09-23T10:45:59.652Z,23.70
2022-09-23T10:48:54.866Z,23.30
2022-09-23T10:51:43.723Z,22.90
2022-09-23T10:54:32.155Z,22.50
2022-09-23T10:57:25.487Z,22.80
2022-09-23T11:00:02.381Z,23.40
2022-09-23T11:02:41.813Z,24.20
2022-09-23T11:05:18.678Z,24.80
2022-09-23T11:08:18.367Z,25.00
2022-09-23T11:11:18.506Z,25.20
2022-09-23T11:14:17.278Z,25.70
2022-09-23T11:17:18.461Z,26.30
2022-09-23T11:20:30.394Z,26.80
2022-09-23T11:23:35.257Z,26.00
2022-09-23T11:26:46.917Z,25.50
2022-09-23T11:29:56.488Z,25.70
2022-09-23T11:32:31.155Z,26.00
2022-09-23T11:35:15.223Z,25.80
2022-09-23T11:37:47.058Z,25.80
2022-09-23T11:40:17.759Z,26.10
2022-09-23T11:43:00.207Z,26.40
2022-09-23T11:45:33.273Z,26.40
2022-09-23T11:48:14.523Z,26.90
2022-09-23T11:50:58.021Z,27.40
2022-09-23T11:53:31.374Z,27.40
2022-09-23T11:56:34.523Z,27.30
2022-09-23T11:59:36.561Z,26.80
2022-09-23T12:02:23.744Z,25.80
2022-09-23T12:05:08.532Z,24.60
2022-09-23T12:08:05.462Z,23.30
2022-09-23T12:11:06.532Z,22.30
2022-09-23T12:13:48.184Z,21.30
2022-09-23T12:16:43.583Z,20.90
2022-09-23T12:19:13.951Z,21.50
2022-09-23T12:21:56.628Z,22.80
2022-09-23T12:24:54.058Z,24.40
2022-09-23T12:27:30.750Z,25.90
2022-09-23T12:30:03.308Z,25.70
2022-09-23T12:32:32.466Z,24.90
2022-09-23T12:35:01.050Z,24.00
2022-09-23T12:37:36.083Z,23.20
2022-09-23T12:40:19.114Z,23.40
2022-09-23T12:42:47.993Z,24.50
2022-09-23T12:45:34.685Z,25.40
2022-09-23T12:48:04.911Z,26.30
2022-09-23T12:51:13.324Z,27.00
2022-09-23T12:53:55.640Z,27.40
2022-09-23T12:56:24.923Z,28.00
2022-09-23T12:58:59.452Z,28.50
2022-09-23T13:01:27.786Z,29.00
2022-09-23T13:04:16.611Z,29.40
2022-09-23T13:06:56.650Z,29.70
2022-09-23T13:09:28.794Z,29.30
2022-09-23T13:12:02.888Z,28.60
2022-09-23T13:14:33.089Z,28.50
2022-09-23T13:17:01.186Z,28.60
2022-09-23T13:19:28.649Z,28.90
2022-09-23T13:22:01.446Z,29.00
2022-09-23T13:24:45.122Z,29.20
2022-09-23T13:27:18.445Z,29.00
2022-09-23T13:30:25.689Z,28.30
2022-09-23T13:33:24.122Z,27.50
2022-09-23T13:35:56.723Z,26.60
2022-09-23T13:38:26.842Z,26.30
2022-09-23T13:41:00.330Z,25.80
2022-09-23T13:43:31.635Z,25.40
2022-09-23T13:46:00.780Z,25.80
2022-09-23T13:48:28.709Z,26.50
2022-09-23T13:50:56.428Z,26.80
2022-09-23T13:53:31.043Z,26.70
2022-09-23T13:56:13.400Z,26.60
2022-09-23T13:58:41.524Z,26.50
2022-09-23T14:01:34.830Z,26.40
2022-09-23T14:04:02.719Z,26.60
2022-09-23T14:06:31.907Z,26.10
2022-09-23T14:09:02.553Z,25.10
2022-09-23T14:11:33.312Z,24.00
2022-09-23T14:14:07.171Z,23.10
2022-09-23T14:16:40.705Z,22.50
2022-09-23T14:19:17.652Z,22.70
2022-09-23T14:21:49.493Z,23.60
2022-09-23T14:24:24.379Z,24.80
2022-09-23T14:27:06.996Z,25.80
2022-09-23T14:29:40.228Z,26.60
2022-09-23T14:32:21.124Z,26.60
2022-09-23T14:34:53.296Z,26.00
2022-09-23T14:37:55.088Z,25.10
2022-09-23T14:40:37.886Z,24.30
2022-09-23T14:43:26.825Z,24.30
2022-09-23T14:45:57.411Z,25.00
2022-09-23T14:48:29.542Z,25.90
2022-09-23T14:51:07.717Z,26.60
2022-09-23T14:53:43.075Z,27.10
2022-09-23T14:56:22.086Z,27.40
2022-09-23T14:58:57.994Z,27.70
2022-09-23T15:01:25.615Z,27.70
2022-09-23T15:03:54.426Z,27.30
2022-09-23T15:06:23.802Z,26.50
2022-09-23T15:08:54.572Z,26.00
2022-09-23T15:11:22.747Z,25.50
2022-09-23T15:13:52.738Z,24.90
2022-09-23T15:16:27.238Z,24.00
2022-09-23T15:18:57.721Z,23.20
2022-09-23T15:21:32.414Z,22.60
2022-09-23T15:24:00.037Z,22.10
2022-09-23T15:26:47.438Z,22.00
2022-09-23T15:29:14.981Z,22.50
2022-09-23T15:31:42.745Z,23.40
2022-09-23T15:34:10.953Z,24.40
2022-09-23T15:36:38.653Z,25.10
2022-09-23T15:39:08.737Z,25.20
2022-09-23T15:41:36.282Z,25.20
2022-09-23T15:44:14.943Z,25.30
2022-09-23T15:46:47.169Z,25.60
2022-09-23T15:49:27.817Z,25.90
2022-09-23T15:51:59.886Z,25.80
2022-09-23T15:54:32.522Z,25.30
2022-09-23T15:57:01.139Z,24.60
2022-09-23T15:59:31.067Z,23.70
2022-09-23T16:02:03.482Z,23.00
2022-09-23T16:04:31.706Z,22.20
2022-09-23T16:06:59.270Z,21.60
2022-09-23T16:09:30.662Z,21.10
2022-09-23T16:11:58.233Z,20.60
2022-09-23T16:14:25.779Z,20.20
2022-09-23T16:16:53.440Z,19.80
2022-09-23T16:19:21.003Z,19.50
2022-09-23T16:21:48.737Z,19.20
2022-09-23T16:24:18.401Z,19.00
2022-09-23T16:26:48.667Z,18.80
2022-09-23T16:29:16.406Z,18.90
2022-09-23T16:31:43.983Z,19.30
2022-09-23T16:34:11.485Z,19.50
2022-09-23T16:36:43.503Z,19.60
2022-09-23T16:39:13.219Z,19.70
2022-09-23T16:41:43.462Z,19.90
2022-09-23T16:44:12.532Z,20.20
2022-09-23T16:46:42.890Z,20.20
2022-09-23T16:49:12.127Z,20.00
2022-09-23T16:51:40.138Z,20.00
2022-09-23T16:54:11.571Z,20.00
2022-09-23T16:56:45.032Z,20.00
2022-09-23T16:59:14.977Z,19.80
2022-09-23T17:02:01.830Z,19.60
2022-09-23T17:04:29.501Z,19.30
2022-09-23T17:06:57.165Z,19.10
2022-09-23T17:09:27.398Z,18.80
2022-09-23T17:12:22.173Z,18.60
2022-09-23T17:14:49.805Z,18.30
2022-09-23T17:17:17.677Z,18.00
2022-09-23T17:19:45.609Z,17.90
2022-09-23T17:22:13.353Z,17.80
2022-09-23T17:24:40.932Z,17.70
2022-09-23T17:27:08.602Z,17.50
2022-09-23T17:29:36.362Z,17.40
2022-09-23T17:32:04.990Z,17.20
2022-09-23T17:34:33.493Z,17.20
2022-09-23T17:37:02.464Z,17.00
2022-09-23T17:39:31.802Z,16.90
2022-09-23T17:41:59.354Z,16.70
2022-09-23T17:44:26.985Z,16.60
2022-09-23T17:46:54.518Z,16.50
2022-09-23T17:49:24.193Z,16.40
2022-09-23T17:51:51.760Z,16.20
2022-09-23T17:54:19.326Z,16.10
2022-09-23T17:56:46.934Z,16.00
2022-09-23T17:59:14.556Z,15.90
2022-09-23T18:01:42.179Z,15.70
2022-09-23T18:04:09.880Z,15.70
2022-09-23T18:06:37.928Z,15.50
2022-09-23T18:09:07.746Z,15.50
2022-09-23T18:11:42.221Z,15.30
2022-09-23T18:14:17.785Z,15.20
2022-09-23T18:16:48.130Z,15.10
2022-09-23T18:19:18.675Z,15.00
2022-09-23T18:21:52.019Z,14.90
2022-09-23T18:24:35.261Z,14.90
2022-09-23T18:27:02.969Z,14.70
2022-09-23T18:29:30.482Z,14.60
2022-09-23T18:31:59.412Z,14.60
2022-09-23T18:34:27.154Z,14.50
2022-09-23T18:36:56.153Z,14.50
2022-09-23T18:39:23.758Z,14.30
2022-09-23T18:41:51.458Z,14.30
2022-09-23T18:44:20.040Z,14.20
2022-09-23T18:46:47.606Z,14.20
2022-09-23T18:49:35.406Z,14.10
2022-09-23T18:52:03.203Z,14.00
2022-09-23T18:54:31.532Z,14.00
2022-09-23T18:56:59.369Z,13.90
2022-09-23T18:59:31.804Z,13.80
2022-09-23T19:01:59.629Z,13.80
2022-09-23T19:04:27.655Z,13.70
2022-09-23T19:06:57.201Z,13.70
2022-09-23T19:09:24.865Z,13.70
2022-09-23T19:11:53.455Z,13.60
2022-09-23T19:14:21.399Z,13.60
2022-09-23T19:16:49.656Z,13.60
2022-09-23T19:19:17.576Z,13.50
2022-09-23T19:21:45.287Z,13.50
2022-09-23T19:24:15.997Z,13.40
2022-09-23T19:26:44.405Z,13.40
2022-09-23T19:29:17.401Z,13.40
2022-09-23T19:31:45.248Z,13.30
2022-09-23T19:34:16.054Z,13.30
2022-09-23T19:36:46.004Z,13.20
2022-09-23T19:39:24.409Z,13.20
2022-09-23T19:41:55.596Z,13.10
2022-09-23T19:44:26.720Z,13.00
2022-09-23T19:46:56.943Z,13.00
2022-09-23T19:49:25.808Z,13.00
2022-09-23T19:51:55.932Z,12.90
2022-09-23T19:54:26.643Z,12.90
2022-09-23T19:56:54.577Z,12.80
2022-09-23T19:59:22.481Z,12.80
2022-09-23T20:01:50.142Z,12.80
2022-09-23T20:04:17.798Z,12.70
2022-09-23T20:06:46.203Z,12.70
2022-09-23T20:09:14.430Z,12.70
2022-09-23T20:11:44.111Z,12.60
2022-09-23T20:14:12.466Z,12.60
2022-09-23T20:16:40.484Z,12.50
2022-09-23T20:19:10.105Z,12.50
2022-09-23T20:21:38.053Z,12.50
2022-09-23T20:24:06.978Z,12.50
2022-09-23T20:26:53.334Z,12.40
2022-09-23T20:29:20.912Z,12.40
2022-09-23T20:31:48.535Z,12.40
2022-09-23T20:34:16.207Z,12.30
2022-09-23T20:36:44.241Z,12.30
2022-09-23T20:39:12.065Z,12.30
2022-09-23T20:41:39.944Z,12.20
2022-09-23T20:44:12.423Z,12.20
2022-09-23T20:46:48.280Z,12.20
2022-09-23T20:49:17.685Z,12.20
2022-09-23T20:51:47.642Z,12.10
2022-09-23T20:54:21.566Z,12.10
2022-09-23T20:56:50.401Z,12.10
2022-09-23T20:59:18.204Z,12.10
2022-09-23T21:01:47.613Z,12.10
2022-09-23T21:04:15.716Z,12.00
2022-09-23T21:06:43.258Z,12.00
2022-09-23T21:09:10.761Z,11.90
2022-09-23T21:11:39.136Z,11.90
2022-09-23T21:14:06.855Z,11.90
2022-09-23T21:16:34.612Z,11.80
2022-09-23T21:19:03.242Z,11.80
2022-09-23T21:21:30.916Z,11.80
2022-09-23T21:24:17.193Z,11.80
2022-09-23T21:26:47.808Z,11.70
2022-09-23T21:29:15.426Z,11.70
2022-09-23T21:31:43.329Z,11.70
2022-09-23T21:34:12.880Z,11.70
2022-09-23T21:36:43.132Z,11.60
2022-09-23T21:39:11.694Z,11.50
2022-09-23T21:41:40.040Z,11.50
2022-09-23T21:44:08.525Z,11.40
2022-09-23T21:46:37.064Z,11.40
2022-09-23T21:49:05.265Z,11.30
2022-09-23T21:51:41.013Z,11.20
2022-09-23T21:54:15.663Z,11.10
2022-09-23T21:56:44.902Z,11.00
2022-09-23T21:59:13.103Z,10.90
2022-09-23T22:01:49.363Z,10.90
2022-09-23T22:04:21.091Z,10.80
2022-09-23T22:06:49.225Z,10.70
2022-09-23T22:09:21.730Z,10.70
2022-09-23T22:12:07.989Z,10.70
2022-09-23T22:14:35.787Z,10.60
2022-09-23T22:17:05.631Z,10.60
2022-09-23T22:19:35.857Z,10.70
2022-09-23T22:22:12.825Z,10.60
2022-09-23T22:24:42.122Z,10.60
2022-09-23T22:27:11.338Z,10.60
2022-09-23T22:29:57.382Z,10.60
2022-09-23T22:32:43.889Z,10.60
2022-09-23T22:35:13.963Z,10.60
2022-09-23T22:37:41.618Z,10.50
2022-09-23T22:40:14.443Z,10.50
2022-09-23T22:42:43.127Z,10.40
2022-09-23T22:45:12.089Z,10.30
2022-09-23T22:47:41.096Z,10.20
2022-09-23T22:50:09.806Z,10.00
2022-09-23T22:52:37.905Z,10.00
2022-09-23T22:55:08.172Z,9.80
2022-09-23T22:57:36.783Z,9.70
2022-09-23T23:00:06.173Z,9.70
2022-09-23T23:02:33.908Z,9.60
2022-09-23T23:05:02.308Z,9.50
2022-09-23T23:07:30.062Z,9.50
2022-09-23T23:09:57.552Z,9.50
2022-09-23T23:12:25.485Z,9.40
2022-09-23T23:14:53.020Z,9.40
2022-09-23T23:17:22.028Z,9.30
2022-09-23T23:19:50.881Z,9.20
2022-09-23T23:22:18.503Z,9.20
2022-09-23T23:24:46.313Z,9.10
2022-09-23T23:27:13.968Z,9.00
2022-09-23T23:29:41.921Z,9.00
2022-09-23T23:32:09.929Z,8.90
2022-09-23T23:34:37.929Z,8.80
2022-09-23T23:37:05.470Z,8.80
2022-09-23T23:39:34.572Z,8.80
2022-09-23T23:42:03.606Z,8.80
2022-09-23T23:44:33.914Z,8.70
2022-09-23T23:47:01.799Z,8.70
2022-09-23T23:49:29.782Z,8.60
2022-09-23T23:51:57.925Z,8.60
2022-09-23T23:54:25.472Z,8.60
2022-09-23T23:56:53.140Z,8.60
2022-09-23T23:59:21.002Z,8.60
